Time;durP1;ratioP1;P1;durP2;ratioP2;P2;SDS_P1;SDS_P2;PMS_P1;PMS_P2;Temp;Humidity;BMP_temperature;BMP_pressure;BME280_temperature;BME280_humidity;BME280_pressure;Samples;Min_cycle;Max_cycle;Signal;HPM_P1;HPM_P2
2020/12/30 00:01:36;;;;;;;2.95;1.50;;;3.70;1.00;;;;;;4949038;28;20748;-71
2020/12/30 00:04:04;;;;;;;1.60;1.50;;;3.70;99.90;;;;;;4963707;28;20198;-71
2020/12/30 00:06:31;;;;;;;1.40;1.30;;;3.60;99.90;;;;;;4949286;28;20591;-71
2020/12/30 00:08:58;;;;;;;2.42;1.35;;;3.60;1.00;;;;;;4950581;28;20208;-71
2020/12/30 00:11:25;;;;;;;2.00;1.40;;;3.50;99.90;;;;;;4946777;28;20654;-72
2020/12/30 00:13:52;;;;;;;1.10;1.05;;;3.30;1.00;;;;;;4949135;28;20230;-71
2020/12/30 00:16:19;;;;;;;1.20;1.10;;;3.10;1.00;;;;;;4948947;28;20799;-73
2020/12/30 00:18:46;;;;;;;1.80;1.55;;;3.10;1.00;;;;;;4950372;28;20207;-73
2020/12/30 00:21:15;;;;;;;1.40;1.30;;;3.10;1.00;;;;;;4944019;28;20234;-75
2020/12/30 00:23:42;;;;;;;1.25;1.00;;;3.10;1.00;;;;;;4947646;28;20285;-71
2020/12/30 00:26:09;;;;;;;2.33;1.35;;;3.00;1.00;;;;;;4943920;28;20272;-72
2020/12/30 00:28:36;;;;;;;1.27;1.17;;;3.00;1.00;;;;;;4959455;28;20398;-77
2020/12/30 00:31:03;;;;;;;1.95;1.85;;;3.00;1.00;;;;;;4947620;28;20232;-72
2020/12/30 00:33:30;;;;;;;1.77;1.30;;;3.00;1.00;;;;;;4948250;28;20224;-73
2020/12/30 00:35:57;;;;;;;1.60;1.50;;;3.10;1.00;;;;;;4948554;28;20207;-72
2020/12/30 00:38:25;;;;;;;1.33;1.23;;;3.10;1.00;;;;;;4948536;28;20218;-73
2020/12/30 00:40:53;;;;;;;2.05;1.35;;;3.00;1.00;;;;;;4946065;28;20234;-74
2020/12/30 00:43:20;;;;;;;1.75;1.30;;;3.10;1.00;;;;;;4948207;28;20693;-72
2020/12/30 00:45:47;;;;;;;1.50;1.23;;;3.10;1.00;;;;;;4945372;28;20204;-74
2020/12/30 00:48:14;;;;;;;2.20;1.40;;;3.20;1.00;;;;;;4948090;28;20216;-73
2020/12/30 00:50:41;;;;;;;1.60;1.50;;;3.30;1.00;;;;;;4944956;28;20217;-74
2020/12/30 00:53:08;;;;;;;3.08;1.77;;;3.30;1.00;;;;;;4947346;28;20208;-72
2020/12/30 00:55:36;;;;;;;1.50;1.40;;;3.20;1.00;;;;;;4948819;28;20217;-73
2020/12/30 00:58:03;;;;;;;2.30;1.75;;;3.10;1.00;;;;;;4948531;28;20217;-73
2020/12/30 01:00:30;;;;;;;1.70;1.60;;;3.10;1.00;;;;;;4948298;28;20323;-72
2020/12/30 01:02:57;;;;;;;1.40;1.30;;;3.00;1.00;;;;;;4949042;28;20229;-74
2020/12/30 01:05:24;;;;;;;1.50;1.40;;;3.00;1.00;;;;;;4948902;29;20220;-72
2020/12/30 01:07:51;;;;;;;1.70;1.60;;;3.00;1.00;;;;;;4959397;28;20206;-73
2020/12/30 01:10:19;;;;;;;2.13;1.55;;;3.00;1.00;;;;;;4948640;28;20217;-72
2020/12/30 01:12:47;;;;;;;1.40;1.30;;;3.00;1.00;;;;;;4950921;28;20279;-72
2020/12/30 01:15:14;;;;;;;1.75;1.60;;;2.90;1.00;;;;;;4954994;28;20228;-73
2020/12/30 01:17:41;;;;;;;1.45;1.33;;;2.90;1.00;;;;;;4954143;28;20217;-72
2020/12/30 01:20:08;;;;;;;1.40;1.30;;;2.90;1.00;;;;;;4947316;28;20205;-73
2020/12/30 01:22:36;;;;;;;1.42;1.33;;;2.80;1.00;;;;;;4963567;28;20635;-72
2020/12/30 01:25:03;;;;;;;2.55;1.80;;;2.80;1.00;;;;;;4944335;28;20202;-72
2020/12/30 01:27:30;;;;;;;2.22;1.50;;;2.80;1.00;;;;;;4954915;28;20217;-72
2020/12/30 01:29:58;;;;;;;1.70;1.60;;;2.80;1.00;;;;;;4948454;28;20214;-76
2020/12/30 01:32:25;;;;;;;1.65;1.55;;;2.90;1.00;;;;;;4952109;28;20229;-72
2020/12/30 01:34:52;;;;;;;3.20;1.60;;;2.80;1.00;;;;;;4953606;28;20225;-72
2020/12/30 01:37:19;;;;;;;1.80;1.70;;;2.80;1.00;;;;;;4953734;28;20223;-73
2020/12/30 01:39:46;;;;;;;3.13;1.58;;;2.70;1.00;;;;;;4948352;28;20294;-72
2020/12/30 01:42:13;;;;;;;2.13;1.80;;;2.80;1.00;;;;;;4953643;28;20408;-72
2020/12/30 01:44:40;;;;;;;1.60;1.50;;;2.80;1.00;;;;;;4949847;28;20699;-71
2020/12/30 01:47:09;;;;;;;1.50;1.40;;;2.80;1.00;;;;;;4948589;28;20731;-73
2020/12/30 01:49:36;;;;;;;1.40;1.30;;;2.80;1.00;;;;;;4949449;28;20239;-72
2020/12/30 01:52:04;;;;;;;1.83;1.73;;;2.80;1.00;;;;;;4950730;28;20244;-76
2020/12/30 01:54:31;;;;;;;1.95;1.50;;;2.80;1.00;;;;;;4951073;28;20278;-72
2020/12/30 01:56:58;;;;;;;1.50;1.40;;;2.80;1.00;;;;;;4950756;28;20278;-72
2020/12/30 01:59:27;;;;;;;1.75;1.40;;;2.80;1.00;;;;;;4946572;28;20271;-73
2020/12/30 02:02:00;;;;;;;2.58;1.60;;;2.80;1.00;;;;;;4947738;28;20233;-73
2020/12/30 02:04:40;;;;;;;1.48;1.38;;;2.80;1.00;;;;;;4949075;28;20196;-72
2020/12/30 02:07:07;;;;;;;1.38;1.27;;;2.80;1.00;;;;;;4950687;28;20206;-72
2020/12/30 02:09:34;;;;;;;1.85;1.40;;;2.80;1.00;;;;;;4949901;28;20207;-75
2020/12/30 02:12:01;;;;;;;1.60;1.50;;;2.80;1.00;;;;;;4944398;28;20277;-73
2020/12/30 02:14:28;;;;;;;1.58;1.40;;;2.80;1.00;;;;;;4951289;28;20285;-74
2020/12/30 02:16:56;;;;;;;2.35;1.38;;;2.80;1.00;;;;;;4953145;28;20280;-72
2020/12/30 02:19:24;;;;;;;1.10;1.00;;;2.80;1.00;;;;;;4950013;28;20301;-72
2020/12/30 02:21:55;;;;;;;1.52;1.38;;;2.80;1.00;;;;;;4946305;28;20282;-74
2020/12/30 02:24:26;;;;;;;1.98;1.02;;;2.90;1.00;;;;;;4950816;28;20195;-71
2020/12/30 02:26:53;;;;;;;2.58;1.55;;;2.90;1.00;;;;;;4948422;28;20200;-73
2020/12/30 02:29:21;;;;;;;3.20;1.70;;;3.00;1.00;;;;;;4949479;28;20370;-72
2020/12/30 02:31:48;;;;;;;1.02;1.02;;;2.90;1.00;;;;;;4946759;28;20227;-72
2020/12/30 02:34:15;;;;;;;1.48;1.38;;;3.00;1.00;;;;;;4947304;28;20982;-74
2020/12/30 02:36:43;;;;;;;1.92;1.40;;;2.90;1.00;;;;;;4945047;28;20726;-72
2020/12/30 02:39:10;;;;;;;1.35;1.25;;;2.90;1.00;;;;;;4950228;28;20260;-71
2020/12/30 02:41:38;;;;;;;1.83;1.23;;;2.90;1.00;;;;;;4955994;28;20312;-72
2020/12/30 02:44:06;;;;;;;1.30;1.20;;;2.90;1.00;;;;;;4949029;28;20735;-72
2020/12/30 02:46:34;;;;;;;2.65;1.33;;;2.90;1.00;;;;;;4961740;28;20270;-74
2020/12/30 02:49:01;;;;;;;1.75;1.30;;;3.00;1.00;;;;;;4949379;28;20214;-74
2020/12/30 02:51:28;;;;;;;2.53;1.95;;;3.00;1.00;;;;;;4953921;28;20731;-72
2020/12/30 02:53:55;;;;;;;1.80;1.25;;;3.00;1.00;;;;;;4958006;28;20711;-74
2020/12/30 02:56:23;;;;;;;2.05;1.20;;;2.90;1.00;;;;;;4948420;28;20639;-75
2020/12/30 02:58:51;;;;;;;1.20;1.10;;;3.00;1.00;;;;;;4966404;28;20206;-74
2020/12/30 03:01:18;;;;;;;1.45;1.30;;;3.10;1.00;;;;;;4959842;28;20242;-73
2020/12/30 03:03:45;;;;;;;1.92;1.73;;;3.00;1.00;;;;;;4951332;28;20206;-73
2020/12/30 03:06:12;;;;;;;1.40;1.30;;;3.00;1.00;;;;;;4958931;28;20210;-73
2020/12/30 03:08:39;;;;;;;1.33;1.23;;;3.00;1.00;;;;;;4957657;28;20263;-73
2020/12/30 03:11:07;;;;;;;1.77;1.25;;;3.00;1.00;;;;;;4952967;28;20266;-73
2020/12/30 03:13:35;;;;;;;1.27;1.10;;;3.00;1.00;;;;;;4952166;28;20226;-73
2020/12/30 03:16:03;;;;;;;1.10;1.00;;;3.00;1.00;;;;;;4954747;28;20661;-74
2020/12/30 03:18:30;;;;;;;3.25;1.30;;;3.00;1.00;;;;;;4949662;28;20227;-73
2020/12/30 03:20:57;;;;;;;1.40;1.30;;;3.00;1.00;;;;;;4951278;28;20231;-70
2020/12/30 03:23:24;;;;;;;1.35;1.00;;;2.90;1.00;;;;;;4958276;28;20218;-77
2020/12/30 03:25:51;;;;;;;1.15;1.00;;;2.90;1.00;;;;;;4948708;28;20262;-72
2020/12/30 03:28:18;;;;;;;1.40;1.30;;;2.90;1.00;;;;;;4966155;28;20207;-74
2020/12/30 03:30:45;;;;;;;1.52;1.42;;;2.90;1.00;;;;;;4948495;28;20288;-72
2020/12/30 03:33:13;;;;;;;1.38;1.27;;;2.90;1.00;;;;;;4945814;28;20219;-74
2020/12/30 03:35:40;;;;;;;1.42;1.20;;;3.00;1.00;;;;;;4943948;28;20239;-74
2020/12/30 03:38:07;;;;;;;1.77;1.25;;;3.00;1.00;;;;;;4956603;28;20203;-73
2020/12/30 03:40:35;;;;;;;1.67;1.23;;;2.90;1.00;;;;;;4963058;28;20204;-74
2020/12/30 03:43:02;;;;;;;2.25;1.30;;;2.90;1.00;;;;;;4955742;28;20202;-73
2020/12/30 03:45:29;;;;;;;1.50;1.25;;;3.00;1.00;;;;;;4945017;28;22064;-71
2020/12/30 03:47:57;;;;;;;1.27;1.10;;;2.90;1.00;;;;;;4948174;28;20508;-71
2020/12/30 03:50:25;;;;;;;1.48;1.05;;;2.90;1.00;;;;;;4952008;28;20327;-72
2020/12/30 03:52:52;;;;;;;1.70;1.10;;;2.90;1.00;;;;;;4949820;28;20243;-73
2020/12/30 03:55:20;;;;;;;1.33;1.10;;;2.80;1.00;;;;;;4950446;28;20233;-71
2020/12/30 03:57:47;;;;;;;1.50;1.40;;;2.90;1.00;;;;;;4948458;28;20241;-74
2020/12/30 04:00:14;;;;;;;3.15;2.20;;;3.00;1.00;;;;;;4948694;28;20225;-71
2020/12/30 04:02:41;;;;;;;1.08;1.08;;;3.10;1.00;;;;;;4950590;28;20247;-71
2020/12/30 04:05:08;;;;;;;1.48;1.38;;;3.00;1.00;;;;;;4954301;28;20212;-72
2020/12/30 04:07:36;;;;;;;1.20;1.00;;;3.00;1.00;;;;;;4951808;28;20237;-72
2020/12/30 04:10:04;;;;;;;1.77;1.00;;;3.00;99.90;;;;;;4947788;28;20206;-71
2020/12/30 04:12:31;;;;;;;1.85;1.15;;;3.00;1.00;;;;;;4953442;28;20234;-72
2020/12/30 04:14:58;;;;;;;1.90;1.30;;;2.90;1.00;;;;;;4961290;28;20224;-72
2020/12/30 04:17:25;;;;;;;1.63;1.52;;;2.90;1.00;;;;;;4950233;28;20211;-71
2020/12/30 04:19:52;;;;;;;2.08;1.40;;;2.90;1.00;;;;;;4947451;28;20214;-71
2020/12/30 04:22:20;;;;;;;2.92;1.05;;;3.00;1.00;;;;;;4951844;28;20301;-71
2020/12/30 04:24:47;;;;;;;1.00;0.90;;;3.00;1.00;;;;;;4953116;28;20737;-72
2020/12/30 04:27:14;;;;;;;1.10;1.00;;;3.00;1.00;;;;;;4948448;28;20218;-71
2020/12/30 04:29:42;;;;;;;2.30;1.20;;;2.90;1.00;;;;;;4949938;28;20258;-71
2020/12/30 04:32:09;;;;;;;2.17;1.33;;;2.80;1.00;;;;;;4946892;28;20294;-70
2020/12/30 04:34:36;;;;;;;1.45;1.17;;;2.80;1.00;;;;;;4951010;28;20303;-70
2020/12/30 04:37:03;;;;;;;3.00;1.10;;;2.80;1.00;;;;;;4956976;28;20214;-72
2020/12/30 04:39:30;;;;;;;1.60;1.13;;;2.80;1.00;;;;;;4955286;28;20261;-71
2020/12/30 04:42:01;;;;;;;1.23;0.90;;;2.80;1.00;;;;;;4952458;28;20284;-72
2020/12/30 04:44:32;;;;;;;1.15;1.05;;;2.80;1.00;;;;;;4952954;28;20202;-70
2020/12/30 04:47:00;;;;;;;1.52;1.00;;;2.80;1.00;;;;;;4948626;28;20238;-71
2020/12/30 04:49:27;;;;;;;1.20;1.10;;;2.80;1.00;;;;;;4951957;28;20273;-73
2020/12/30 04:51:54;;;;;;;1.20;1.10;;;2.80;1.00;;;;;;4953717;28;20285;-72
2020/12/30 04:54:22;;;;;;;5.78;1.00;;;2.80;1.00;;;;;;4958660;28;20288;-71
2020/12/30 04:57:00;;;;;;;6.07;3.47;;;2.80;1.00;;;;;;4948875;28;20917;-72
2020/12/30 04:59:29;;;;;;;1.15;1.05;;;2.80;1.00;;;;;;4947312;28;20266;-71
2020/12/30 05:02:07;;;;;;;1.40;1.20;;;2.80;1.00;;;;;;4952095;28;20286;-71
2020/12/30 05:04:35;;;;;;;1.00;0.90;;;2.90;1.00;;;;;;4964869;28;20196;-71
2020/12/30 05:07:07;;;;;;;1.35;1.25;;;2.70;1.00;;;;;;4950550;28;20208;-70
2020/12/30 05:09:35;;;;;;;1.02;0.98;;;2.60;1.00;;;;;;4950851;28;20264;-71
2020/12/30 05:12:11;;;;;;;3.03;1.17;;;2.70;1.00;;;;;;4950882;28;20240;-71
2020/12/30 05:14:39;;;;;;;1.33;1.23;;;2.70;1.00;;;;;;4946949;28;20223;-72
2020/12/30 05:17:06;;;;;;;1.40;1.00;;;2.60;1.00;;;;;;4949944;28;20263;-70
2020/12/30 05:19:34;;;;;;;1.73;1.10;;;2.60;1.00;;;;;;4944122;28;20303;-71
2020/12/30 05:22:01;;;;;;;1.80;0.82;;;2.60;1.00;;;;;;4948641;28;20266;-70
2020/12/30 05:24:29;;;;;;;1.13;0.98;;;2.60;1.00;;;;;;4956300;28;20212;-71
2020/12/30 05:26:57;;;;;;;2.05;1.08;;;2.60;1.00;;;;;;4958354;28;20222;-70
2020/12/30 05:29:26;;;;;;;2.42;1.05;;;2.60;1.00;;;;;;4951212;28;20207;-76
2020/12/30 05:31:54;;;;;;;1.73;0.90;;;2.60;1.00;;;;;;4947048;28;20380;-71
2020/12/30 05:34:24;;;;;;;1.15;0.90;;;2.70;1.00;;;;;;4951985;28;20798;-71
2020/12/30 05:36:52;;;;;;;1.38;1.00;;;2.70;1.00;;;;;;4962890;28;20306;-72
2020/12/30 05:39:28;;;;;;;0.90;0.90;;;2.80;1.00;;;;;;4954239;28;21141;-71
2020/12/30 05:42:11;;;;;;;1.60;1.00;;;2.80;1.00;;;;;;4947556;28;20233;-72
2020/12/30 05:44:40;;;;;;;1.08;0.98;;;2.90;99.90;;;;;;4946200;28;20211;-71
2020/12/30 05:47:17;;;;;;;2.58;0.90;;;3.00;99.90;;;;;;4945061;28;20277;-75
2020/12/30 05:49:45;;;;;;;1.95;0.80;;;3.10;99.90;;;;;;4951110;28;20232;-72
2020/12/30 05:52:18;;;;;;;2.80;1.00;;;3.10;99.90;;;;;;4957136;28;20580;-71
2020/12/30 05:54:50;;;;;;;1.10;1.00;;;3.20;99.90;;;;;;4947141;28;20236;-72
2020/12/30 05:57:27;;;;;;;1.90;1.05;;;3.10;99.90;;;;;;4947934;28;20253;-71
2020/12/30 05:59:57;;;;;;;1.42;1.30;;;3.10;99.90;;;;;;4945055;29;20215;-71
2020/12/30 06:02:27;;;;;;;2.42;1.20;;;3.10;99.90;;;;;;4950689;28;20252;-74
2020/12/30 06:04:56;;;;;;;1.40;1.30;;;3.10;99.90;;;;;;4945370;28;20746;-74
2020/12/30 06:07:25;;;;;;;1.30;1.20;;;3.00;99.90;;;;;;4946777;28;20597;-71
2020/12/30 06:09:55;;;;;;;3.50;1.20;;;3.00;99.90;;;;;;4949748;28;20262;-74
2020/12/30 06:12:27;;;;;;;1.73;1.60;;;3.00;99.90;;;;;;4964124;28;20243;-71
2020/12/30 06:14:55;;;;;;;1.90;1.40;;;2.90;99.90;;;;;;4949842;28;20234;-70
2020/12/30 06:17:29;;;;;;;2.20;1.63;;;2.90;99.90;;;;;;4954631;28;20832;-71
2020/12/30 06:19:57;;;;;;;2.60;1.70;;;2.80;1.00;;;;;;4944752;28;20563;-71
2020/12/30 06:22:27;;;;;;;3.28;2.10;;;2.80;1.00;;;;;;4950910;28;20232;-69
2020/12/30 06:24:56;;;;;;;1.92;1.63;;;2.70;1.00;;;;;;4948884;28;20202;-71
2020/12/30 06:27:26;;;;;;;1.70;1.60;;;2.70;1.00;;;;;;4950836;28;20202;-72
2020/12/30 06:29:57;;;;;;;2.15;1.73;;;2.80;1.00;;;;;;4949993;28;20198;-71
2020/12/30 06:32:29;;;;;;;1.85;1.75;;;2.80;1.00;;;;;;4953609;28;20255;-72
2020/12/30 06:34:57;;;;;;;2.00;1.50;;;2.90;1.00;;;;;;4955039;28;20222;-70
2020/12/30 06:37:29;;;;;;;1.90;1.70;;;3.00;99.90;;;;;;4965194;28;20655;-72
2020/12/30 06:40:27;;;;;;;1.77;1.60;;;3.00;99.90;;;;;;4954346;28;20203;-71
2020/12/30 06:42:56;;;;;;;2.20;1.98;;;3.10;99.90;;;;;;4886005;29;20220;-71
2020/12/30 06:45:50;;;;;;;2.25;2.03;;;3.00;99.90;;;;;;4938412;28;20220;-71
2020/12/30 06:48:22;;;;;;;1.92;1.73;;;3.10;99.90;;;;;;4945814;28;20220;-70
2020/12/30 06:50:50;;;;;;;1.60;1.50;;;3.20;99.90;;;;;;4950997;28;20233;-71
2020/12/30 06:53:38;;;;;;;2.83;2.53;;;3.00;99.90;;;;;;4960849;28;20209;-70
2020/12/30 06:56:06;;;;;;;3.08;1.83;;;3.00;99.90;;;;;;4947824;28;20232;-71
2020/12/30 06:58:46;;;;;;;3.33;1.95;;;2.90;99.90;;;;;;4948187;28;20614;-71
2020/12/30 07:01:16;;;;;;;1.92;1.50;;;3.00;99.90;;;;;;4952506;28;20248;-71
2020/12/30 07:03:43;;;;;;;1.95;1.67;;;3.00;99.90;;;;;;4957721;28;20277;-73
2020/12/30 07:06:28;;;;;;;1.90;1.58;;;3.00;1.00;;;;;;4958909;28;20211;-76
2020/12/30 07:08:57;;;;;;;2.95;2.00;;;3.00;99.90;;;;;;4950618;28;20203;-73
2020/12/30 07:11:51;;;;;;;2.25;2.05;;;3.00;99.90;;;;;;4953452;28;20231;-71
2020/12/30 07:14:21;;;;;;;3.03;1.55;;;2.90;99.90;;;;;;4922521;28;20247;-69
2020/12/30 07:16:51;;;;;;;2.20;1.90;;;2.70;1.00;;;;;;4947025;28;20273;-71
2020/12/30 07:19:21;;;;;;;4.05;2.20;;;2.70;1.00;;;;;;4945544;28;20660;-69
2020/12/30 07:21:53;;;;;;;2.00;1.88;;;2.70;1.00;;;;;;4953955;28;20251;-71
2020/12/30 07:24:24;;;;;;;1.60;1.50;;;2.90;1.00;;;;;;4967137;28;20678;-70
2020/12/30 07:26:54;;;;;;;2.67;2.25;;;2.80;1.00;;;;;;4950697;28;20217;-71
2020/12/30 07:29:22;;;;;;;1.83;1.73;;;2.70;1.00;;;;;;4961963;28;20207;-70
2020/12/30 07:31:52;;;;;;;1.77;1.67;;;2.70;1.00;;;;;;4950184;28;20249;-72
2020/12/30 07:34:22;;;;;;;1.75;1.35;;;2.70;1.00;;;;;;4951402;28;20266;-71
2020/12/30 07:36:50;;;;;;;1.92;1.73;;;2.50;1.00;;;;;;4955901;28;20915;-70
2020/12/30 07:39:24;;;;;;;2.08;1.80;;;2.50;1.00;;;;;;4959568;28;20210;-71
2020/12/30 07:41:52;;;;;;;2.55;1.40;;;2.50;1.00;;;;;;4946161;28;20233;-71
2020/12/30 07:44:22;;;;;;;2.13;1.63;;;2.50;1.00;;;;;;4948612;28;20639;-72
2020/12/30 07:46:50;;;;;;;1.55;1.45;;;2.50;1.00;;;;;;4942658;28;20246;-71
2020/12/30 07:49:20;;;;;;;1.58;1.45;;;2.60;1.00;;;;;;4951531;28;20223;-71
2020/12/30 07:51:49;;;;;;;2.65;1.40;;;2.70;1.00;;;;;;4952285;28;20230;-70
2020/12/30 07:54:17;;;;;;;2.10;1.95;;;2.80;1.00;;;;;;4951740;28;20219;-71
2020/12/30 07:56:45;;;;;;;1.33;1.23;;;2.80;1.00;;;;;;4949635;29;20215;-72
2020/12/30 07:59:19;;;;;;;2.30;1.58;;;2.80;1.00;;;;;;4951531;28;20216;-70
2020/12/30 08:02:01;;;;;;;2.15;1.40;;;3.00;1.00;;;;;;4950641;28;20648;-72
2020/12/30 08:04:29;;;;;;;1.50;1.23;;;3.20;99.90;;;;;;4950842;28;20254;-70
2020/12/30 08:06:57;;;;;;;1.30;1.20;;;3.30;99.90;;;;;;4950135;28;20203;-71
2020/12/30 08:09:29;;;;;;;1.50;1.10;;;3.50;99.90;;;;;;4952945;28;20449;-72
2020/12/30 08:11:58;;;;;;;1.90;1.80;;;3.30;99.90;;;;;;4949427;28;20480;-72
2020/12/30 08:14:27;;;;;;;3.25;1.65;;;3.50;99.90;;;;;;4951660;28;20245;-72
2020/12/30 08:17:01;;;;;;;1.67;1.58;;;3.80;10.90;;;;;;4943171;28;20225;-71
2020/12/30 08:19:29;;;;;;;1.58;1.48;;;3.60;99.90;;;;;;4949583;29;20214;-74
2020/12/30 08:22:14;;;;;;;1.27;1.17;;;3.60;99.90;;;;;;4947901;28;20234;-75
2020/12/30 08:24:46;;;;;;;2.78;1.40;;;3.80;99.90;;;;;;4951615;28;20296;-72
2020/12/30 08:27:15;;;;;;;1.95;1.48;;;3.90;1.00;;;;;;4950928;28;20271;-71
2020/12/30 08:29:56;;;;;;;1.52;1.42;;;4.00;99.90;;;;;;4949542;28;20297;-73
2020/12/30 08:32:45;;;;;;;1.23;1.10;;;4.00;1.00;;;;;;4951209;28;20240;-72
2020/12/30 08:35:15;;;;;;;2.10;1.40;;;3.80;1.00;;;;;;4947964;28;20267;-71
2020/12/30 08:37:50;;;;;;;1.60;1.10;;;4.00;1.00;;;;;;4955154;28;20225;-72
2020/12/30 08:40:22;;;;;;;1.95;1.27;;;4.00;99.90;;;;;;4946089;28;20215;-71
2020/12/30 08:43:12;;;;;;;1.05;1.00;;;4.00;77.50;;;;;;4949041;29;20247;-72
2020/12/30 08:45:56;;;;;;;2.08;1.17;;;4.00;99.90;;;;;;4949826;28;20210;-72
2020/12/30 08:48:29;;;;;;;1.42;1.20;;;4.00;99.90;;;;;;4939023;28;20474;-74
2020/12/30 08:50:56;;;;;;;1.40;1.30;;;4.00;99.90;;;;;;4943602;28;20254;-73
2020/12/30 08:53:36;;;;;;;2.50;2.30;;;4.10;99.90;;;;;;4952324;28;20208;-74
2020/12/30 08:56:04;;;;;;;2.85;1.30;;;4.20;81.10;;;;;;4941824;28;20722;-71
2020/12/30 08:58:32;;;;;;;1.52;1.30;;;4.30;1.00;;;;;;4948475;28;20224;-72
2020/12/30 09:00:59;;;;;;;1.73;1.48;;;4.30;99.90;;;;;;4964318;28;20238;-71
2020/12/30 09:03:28;;;;;;;2.65;1.50;;;4.20;1.00;;;;;;4950335;28;20213;-70
2020/12/30 09:05:57;;;;;;;1.40;1.30;;;4.10;99.90;;;;;;4956668;28;20275;-71
2020/12/30 09:08:25;;;;;;;1.52;1.20;;;4.10;1.00;;;;;;4945142;28;20777;-73
2020/12/30 09:10:52;;;;;;;1.25;1.10;;;4.00;99.90;;;;;;4947788;28;20284;-69
2020/12/30 09:13:21;;;;;;;1.63;1.10;;;4.00;35.40;;;;;;4949954;28;20217;-73
2020/12/30 09:15:54;;;;;;;1.20;1.10;;;3.80;1.00;;;;;;4943704;28;20280;-68
2020/12/30 09:18:22;;;;;;;2.20;1.20;;;3.80;99.90;;;;;;4959662;28;20551;-71
2020/12/30 09:20:51;;;;;;;3.20;1.67;;;3.80;99.90;;;;;;4950770;28;20494;-71
2020/12/30 09:23:22;;;;;;;1.25;1.15;;;3.90;1.00;;;;;;4950474;28;20209;-71
2020/12/30 09:25:50;;;;;;;1.95;0.98;;;4.00;99.90;;;;;;4951171;28;20209;-70
2020/12/30 09:28:19;;;;;;;1.08;0.98;;;4.10;27.20;;;;;;4947140;29;20218;-71
2020/12/30 09:30:47;;;;;;;1.45;1.33;;;4.30;99.90;;;;;;4948988;28;20636;-71
2020/12/30 09:33:15;;;;;;;1.30;1.10;;;4.30;1.00;;;;;;4939842;29;20218;-72
2020/12/30 09:35:43;;;;;;;2.47;1.10;;;4.40;1.00;;;;;;4947827;29;20230;-70
2020/12/30 09:38:16;;;;;;;0.88;0.88;;;4.70;1.00;;;;;;4945854;28;20278;-70
2020/12/30 09:40:45;;;;;;;1.10;1.00;;;4.90;95.00;;;;;;4943522;28;20210;-71
2020/12/30 09:43:15;;;;;;;1.05;0.98;;;5.10;99.90;;;;;;4948420;28;20208;-72
2020/12/30 09:45:43;;;;;;;1.48;0.95;;;4.90;1.00;;;;;;4946646;28;20290;-72
2020/12/30 09:48:12;;;;;;;1.20;1.00;;;5.00;1.00;;;;;;4940447;28;20476;-72
2020/12/30 09:50:39;;;;;;;1.15;1.00;;;5.10;1.00;;;;;;4942113;28;20764;-73
2020/12/30 09:53:07;;;;;;;1.20;0.90;;;5.10;1.00;;;;;;4948104;28;20265;-71
2020/12/30 09:55:36;;;;;;;4.43;0.88;;;4.90;1.00;;;;;;4944598;28;20576;-71
2020/12/30 09:58:03;;;;;;;0.98;0.80;;;4.70;99.90;;;;;;4947406;28;20216;-71
2020/12/30 10:00:31;;;;;;;1.00;0.90;;;4.80;99.90;;;;;;4940082;28;20312;-70
2020/12/30 10:02:59;;;;;;;1.63;1.20;;;4.80;17.30;;;;;;4943265;28;20757;-72
2020/12/30 10:05:26;;;;;;;1.05;0.90;;;4.70;99.90;;;;;;4947054;28;20225;-72
2020/12/30 10:07:53;;;;;;;1.40;1.15;;;4.50;99.90;;;;;;4959716;28;20228;-71
2020/12/30 10:10:20;;;;;;;2.90;1.48;;;4.30;1.00;;;;;;4947964;28;20219;-71
2020/12/30 10:12:49;;;;;;;2.10;1.92;;;4.20;1.00;;;;;;4947359;28;20242;-73
2020/12/30 10:15:17;;;;;;;1.50;1.38;;;4.10;1.00;;;;;;4946676;28;20289;-70
2020/12/30 10:17:45;;;;;;;1.20;0.95;;;4.10;1.00;;;;;;4952167;28;20220;-72
2020/12/30 10:20:13;;;;;;;2.03;1.15;;;4.20;99.90;;;;;;4952399;28;20236;-69
2020/12/30 10:22:41;;;;;;;1.80;1.30;;;4.00;1.00;;;;;;4952061;28;20266;-70
2020/12/30 10:25:12;;;;;;;1.02;0.90;;;4.00;99.90;;;;;;4953408;28;20205;-70
2020/12/30 10:27:40;;;;;;;1.08;0.90;;;4.00;99.90;;;;;;4939095;28;20218;-75
2020/12/30 10:30:09;;;;;;;1.48;1.30;;;4.10;99.90;;;;;;4933729;28;20340;-71
2020/12/30 10:32:36;;;;;;;1.40;1.30;;;4.10;99.90;;;;;;4953447;28;20302;-72
2020/12/30 10:35:03;;;;;;;2.25;0.95;;;4.20;99.90;;;;;;4949250;28;20298;-71
2020/12/30 10:37:31;;;;;;;0.90;0.88;;;4.10;99.90;;;;;;4944465;28;20219;-70
2020/12/30 10:39:58;;;;;;;1.10;1.00;;;4.10;1.00;;;;;;4947674;28;20649;-72
2020/12/30 10:42:25;;;;;;;1.90;0.82;;;4.10;97.30;;;;;;4947110;28;20229;-72
2020/12/30 10:44:52;;;;;;;1.13;1.02;;;4.20;1.00;;;;;;4944374;28;20204;-72
2020/12/30 10:47:21;;;;;;;1.10;1.00;;;4.20;1.00;;;;;;4949029;28;20274;-73
2020/12/30 10:49:48;;;;;;;1.52;0.90;;;4.20;99.90;;;;;;4949389;28;20224;-72
2020/12/30 10:52:15;;;;;;;2.40;1.10;;;4.10;19.80;;;;;;4949299;28;20259;-70
2020/12/30 10:54:46;;;;;;;3.53;1.05;;;4.20;81.10;;;;;;4953262;28;20297;-72
2020/12/30 10:57:14;;;;;;;0.82;0.82;;;4.20;90.10;;;;;;4948930;28;20595;-70
2020/12/30 10:59:41;;;;;;;1.15;0.93;;;4.20;99.90;;;;;;4947696;28;20319;-70
2020/12/30 11:02:09;;;;;;;2.05;0.93;;;4.20;99.90;;;;;;4950063;28;20243;-72
2020/12/30 11:04:37;;;;;;;0.93;0.90;;;4.20;1.00;;;;;;4949686;29;20232;-71
2020/12/30 11:07:04;;;;;;;1.25;0.98;;;4.30;99.90;;;;;;4950953;28;20357;-71
2020/12/30 11:09:32;;;;;;;1.13;1.02;;;4.30;99.90;;;;;;4949464;28;20246;-70
2020/12/30 11:11:59;;;;;;;1.00;0.90;;;4.50;99.90;;;;;;4951838;28;20288;-72
2020/12/30 11:14:27;;;;;;;1.55;0.90;;;4.60;1.00;;;;;;4948269;28;20366;-70
2020/12/30 11:16:54;;;;;;;1.45;1.35;;;4.80;1.00;;;;;;4947446;28;20235;-71
2020/12/30 11:19:21;;;;;;;1.60;1.50;;;4.90;1.00;;;;;;4947949;28;20252;-73
2020/12/30 11:21:53;;;;;;;0.80;0.70;;;4.90;1.00;;;;;;4947782;28;20274;-71
2020/12/30 11:24:21;;;;;;;1.03;0.93;;;4.80;99.90;;;;;;4964838;28;20247;-72
2020/12/30 11:26:48;;;;;;;1.00;0.90;;;4.90;83.20;;;;;;4947935;28;20461;-74
2020/12/30 11:29:16;;;;;;;0.90;0.85;;;4.90;1.00;;;;;;4948669;28;20356;-72
2020/12/30 11:31:43;;;;;;;1.10;0.90;;;5.00;99.90;;;;;;4952045;28;20251;-71
2020/12/30 11:34:11;;;;;;;0.80;0.80;;;4.90;99.90;;;;;;4942267;28;20478;-72
2020/12/30 11:36:39;;;;;;;2.38;1.40;;;5.00;99.90;;;;;;4946249;28;20252;-69
2020/12/30 11:39:07;;;;;;;2.88;1.10;;;4.90;1.00;;;;;;4948544;28;20765;-71
2020/12/30 11:41:34;;;;;;;1.08;0.98;;;5.00;70.30;;;;;;4947044;28;20960;-75
2020/12/30 11:44:01;;;;;;;1.73;1.00;;;5.00;1.00;;;;;;4949000;28;20214;-71
2020/12/30 11:46:29;;;;;;;1.83;1.00;;;5.00;99.90;;;;;;4944026;29;20211;-71
2020/12/30 11:48:58;;;;;;;2.25;0.95;;;5.10;99.90;;;;;;4946884;28;20205;-71
2020/12/30 11:51:25;;;;;;;1.00;0.90;;;5.10;1.00;;;;;;4949030;28;20234;-70
2020/12/30 11:53:52;;;;;;;1.15;1.05;;;5.00;99.90;;;;;;4949788;28;20802;-73
2020/12/30 11:56:21;;;;;;;1.10;1.00;;;4.90;50.10;;;;;;4950034;28;20233;-71
2020/12/30 11:58:48;;;;;;;2.00;1.40;;;4.90;37.30;;;;;;4948586;28;20213;-71
2020/12/30 12:01:16;;;;;;;1.15;1.05;;;4.80;99.90;;;;;;4948924;28;20240;-70
2020/12/30 12:03:43;;;;;;;1.20;1.10;;;4.80;1.00;;;;;;4948911;28;20238;-74
2020/12/30 12:06:11;;;;;;;1.38;1.25;;;4.70;1.00;;;;;;4948416;29;20643;-70
2020/12/30 12:08:39;;;;;;;3.28;1.50;;;4.60;1.00;;;;;;4948600;29;20234;-71
2020/12/30 12:11:06;;;;;;;2.03;1.83;;;4.60;1.00;;;;;;4950389;28;20603;-72
2020/12/30 12:13:34;;;;;;;2.53;2.10;;;4.80;99.90;;;;;;4946782;29;20270;-71
2020/12/30 12:16:01;;;;;;;1.98;1.45;;;4.80;1.00;;;;;;4949386;29;20285;-73
2020/12/30 12:18:28;;;;;;;2.67;1.50;;;4.70;99.90;;;;;;4949269;28;20206;-72
2020/12/30 12:20:55;;;;;;;3.08;1.50;;;5.00;99.90;;;;;;4949957;28;20267;-74
2020/12/30 12:23:25;;;;;;;1.98;1.80;;;5.40;71.00;;;;;;4946818;28;20211;-72
2020/12/30 12:25:52;;;;;;;2.75;1.35;;;5.60;99.90;;;;;;4941855;28;20217;-73
2020/12/30 12:28:38;;;;;;;5.80;1.70;;;5.50;1.00;;;;;;4951431;28;20216;-71
2020/12/30 12:31:05;;;;;;;2.08;1.52;;;5.40;1.00;;;;;;4958274;28;20247;-77
2020/12/30 12:33:33;;;;;;;1.45;1.35;;;5.50;1.00;;;;;;4960087;28;20208;-73
2020/12/30 12:36:00;;;;;;;1.98;1.40;;;5.40;1.00;;;;;;4944710;28;20249;-72
2020/12/30 12:38:27;;;;;;;2.35;1.60;;;5.20;1.00;;;;;;4947685;28;20200;-72
2020/12/30 12:40:54;;;;;;;1.70;1.60;;;5.30;1.00;;;;;;4948347;28;20295;-74
2020/12/30 12:43:22;;;;;;;2.40;2.10;;;5.30;47.20;;;;;;4947422;28;20221;-73
2020/12/30 12:45:50;;;;;;;3.60;2.70;;;5.50;99.90;;;;;;4946548;28;20237;-72
2020/12/30 12:48:17;;;;;;;1.80;1.65;;;5.90;1.00;;;;;;4947042;28;20210;-74
2020/12/30 12:50:44;;;;;;;1.33;1.23;;;6.00;1.00;;;;;;4947395;28;20215;-73
2020/12/30 12:53:12;;;;;;;1.70;1.60;;;6.50;1.00;;;;;;4949127;28;20217;-75
2020/12/30 12:55:39;;;;;;;1.60;1.50;;;7.00;99.90;;;;;;4948664;28;21031;-73
2020/12/30 12:58:06;;;;;;;1.70;1.60;;;7.30;99.90;;;;;;4947113;28;20503;-72
2020/12/30 13:00:33;;;;;;;2.17;1.40;;;7.40;99.90;;;;;;4950856;28;20490;-72
2020/12/30 13:03:01;;;;;;;2.07;1.60;;;7.10;99.90;;;;;;4957068;28;20491;-72
2020/12/30 13:05:29;;;;;;;3.40;1.60;;;6.60;99.90;;;;;;4946766;28;20465;-71
2020/12/30 13:07:56;;;;;;;1.80;1.57;;;6.10;99.90;;;;;;4945255;28;20466;-77
2020/12/30 13:10:23;;;;;;;1.67;1.47;;;6.00;1.00;;;;;;4948924;28;20496;-74
2020/12/30 13:12:50;;;;;;;2.85;1.25;;;5.70;99.90;;;;;;4947299;28;20479;-73
2020/12/30 13:15:17;;;;;;;1.67;1.53;;;5.70;99.90;;;;;;4946917;28;20220;-74